Time;durP1;ratioP1;P1;durP2;ratioP2;P2;SDS_P1;SDS_P2;PMS_P1;PMS_P2;Temp;Humidity;BMP_temperature;BMP_pressure;BME280_temperature;BME280_humidity;BME280_pressure;Samples;Min_cycle;Max_cycle;Signal;HPM_P1;HPM_P2
2021/08/08 00:02:05;;;;;;;2.83;0.88;;;16.10;99.90;;;;;;5105984;28;20035;-77
2021/08/08 00:04:31;;;;;;;1.52;1.00;;;16.10;99.90;;;;;;5088682;28;20047;-76
2021/08/08 00:06:58;;;;;;;2.33;0.90;;;16.20;99.90;;;;;;5070967;28;20055;-76
2021/08/08 00:09:24;;;;;;;4.10;0.90;;;16.10;99.90;;;;;;5088946;28;20039;-76
2021/08/08 00:11:51;;;;;;;5.82;1.60;;;16.20;99.90;;;;;;5087859;28;20036;-78
2021/08/08 00:14:17;;;;;;;3.95;1.10;;;16.20;99.90;;;;;;5071118;27;20514;-78
2021/08/08 00:16:45;;;;;;;4.38;1.30;;;16.10;99.90;;;;;;5083802;28;20391;-77
2021/08/08 00:19:13;;;;;;;2.97;1.50;;;16.10;99.90;;;;;;5068080;28;20051;-76
2021/08/08 00:21:40;;;;;;;4.47;1.83;;;16.10;99.90;;;;;;5081515;28;20506;-77
2021/08/08 00:24:06;;;;;;;3.65;2.13;;;16.10;99.90;;;;;;5069754;28;20411;-77
2021/08/08 00:26:33;;;;;;;4.32;1.60;;;16.10;99.90;;;;;;5085063;28;20028;-76
2021/08/08 00:29:01;;;;;;;4.43;1.85;;;16.10;99.90;;;;;;5054285;28;20059;-77
2021/08/08 00:31:27;;;;;;;6.00;2.00;;;16.10;99.90;;;;;;5069360;28;20035;-77
2021/08/08 00:34:06;;;;;;;6.20;2.70;;;16.10;99.90;;;;;;5055549;28;20051;-77
2021/08/08 00:36:34;;;;;;;5.25;2.40;;;16.10;99.90;;;;;;5069320;28;20113;-78
2021/08/08 00:39:01;;;;;;;3.45;2.00;;;16.20;99.90;;;;;;5070439;28;20039;-77
2021/08/08 00:41:30;;;;;;;6.13;2.28;;;16.10;99.90;;;;;;5067158;28;20040;-76
2021/08/08 00:43:56;;;;;;;6.07;2.13;;;16.10;99.90;;;;;;5071687;28;20490;-76
2021/08/08 00:46:23;;;;;;;7.88;2.78;;;16.20;99.90;;;;;;5070047;28;20031;-76
2021/08/08 00:48:50;;;;;;;8.02;3.33;;;16.20;99.90;;;;;;5090595;28;20047;-76
2021/08/08 00:51:21;;;;;;;7.25;2.85;;;16.20;99.90;;;;;;5053919;28;20379;-75
2021/08/08 00:53:48;;;;;;;11.88;3.03;;;16.20;99.90;;;;;;5070251;28;20050;-75
2021/08/08 00:56:16;;;;;;;3.65;2.20;;;16.10;99.90;;;;;;5069914;28;20038;-76
2021/08/08 00:58:43;;;;;;;6.45;2.03;;;16.10;99.90;;;;;;5087308;28;20031;-76
2021/08/08 01:01:13;;;;;;;7.75;4.03;;;16.10;99.90;;;;;;5067769;28;20393;-75
2021/08/08 01:03:41;;;;;;;12.68;4.03;;;16.00;99.90;;;;;;5087385;28;20509;-75
2021/08/08 01:06:24;;;;;;;6.97;4.35;;;16.00;99.90;;;;;;5086015;28;20036;-75
2021/08/08 01:09:01;;;;;;;8.18;4.18;;;16.00;99.90;;;;;;5087755;28;20024;-75
2021/08/08 01:11:28;;;;;;;9.35;5.45;;;16.00;99.90;;;;;;5101912;27;20035;-75
2021/08/08 01:13:56;;;;;;;8.10;4.30;;;16.00;99.90;;;;;;5086559;28;20046;-75
2021/08/08 01:16:26;;;;;;;11.95;5.97;;;15.90;99.90;;;;;;5074197;28;20039;-75
2021/08/08 01:18:56;;;;;;;9.63;4.75;;;15.90;99.90;;;;;;5087064;28;20036;-75
2021/08/08 01:21:24;;;;;;;9.52;5.82;;;15.90;99.90;;;;;;5083276;28;20399;-75
2021/08/08 01:33:46;;;;;;;15.63;6.82;;;16.00;99.90;;;;;;4912882;24;20055;-76
2021/08/08 01:36:17;;;;;;;11.82;6.70;;;15.90;99.90;;;;;;4756401;30;20050;-75
2021/08/08 01:39:00;;;;;;;16.83;8.43;;;15.90;99.90;;;;;;4743270;30;20059;-75
2021/08/08 01:41:41;;;;;;;7.93;6.32;;;15.90;99.90;;;;;;4758430;30;20051;-75
2021/08/08 01:44:08;;;;;;;10.38;6.50;;;15.90;99.90;;;;;;4759222;30;20035;-79
2021/08/08 01:46:41;;;;;;;14.70;8.63;;;15.90;99.90;;;;;;4758617;30;20059;-80
2021/08/08 01:49:29;;;;;;;16.40;7.68;;;15.90;99.90;;;;;;4745640;30;20043;-80
2021/08/08 01:51:58;;;;;;;15.15;7.97;;;15.90;99.90;;;;;;4758475;30;20569;-81
2021/08/08 01:54:29;;;;;;;13.38;6.03;;;15.90;99.90;;;;;;4758874;30;20059;-80
2021/08/08 01:57:01;;;;;;;;;;;15.90;99.90;;;;;;4759319;30;20068;-80
2021/08/08 01:59:30;;;;;;;20.55;10.18;;;15.90;99.90;;;;;;4758327;30;19925;-80
2021/08/08 02:02:17;;;;;;;16.55;9.27;;;15.80;99.90;;;;;;4743437;30;20419;-81
2021/08/08 02:04:50;;;;;;;19.98;8.63;;;15.80;99.90;;;;;;4769011;30;20051;-80
2021/08/08 02:07:19;;;;;;;21.73;10.45;;;15.80;99.90;;;;;;4743031;30;20078;-80
2021/08/08 02:09:50;;;;;;;16.50;9.57;;;15.80;99.90;;;;;;4728743;30;20498;-81
2021/08/08 02:12:22;;;;;;;18.90;9.68;;;15.70;99.90;;;;;;4743422;30;20048;-76
2021/08/08 02:14:50;;;;;;;16.33;8.25;;;15.80;99.90;;;;;;4727119;30;20048;-76
2021/08/08 02:17:21;;;;;;;22.98;11.93;;;15.80;99.90;;;;;;4773538;29;20047;-76
2021/08/08 02:19:49;;;;;;;14.45;9.25;;;15.70;99.90;;;;;;4743085;30;20047;-76
2021/08/08 02:22:19;;;;;;;24.63;11.80;;;15.70;99.90;;;;;;4751733;30;20043;-77
2021/08/08 02:24:50;;;;;;;22.98;12.05;;;15.70;99.90;;;;;;4740942;30;20066;-76
2021/08/08 02:27:21;;;;;;;19.70;9.57;;;15.70;99.90;;;;;;4739794;30;20392;-76
2021/08/08 02:29:55;;;;;;;21.08;11.98;;;15.70;99.90;;;;;;4728442;30;20048;-76
2021/08/08 02:32:22;;;;;;;32.88;12.95;;;15.70;99.90;;;;;;4740548;30;20083;-77
2021/08/08 02:34:50;;;;;;;19.58;8.77;;;15.70;99.90;;;;;;4756986;30;20047;-76
2021/08/08 02:37:19;;;;;;;24.63;11.05;;;15.70;99.90;;;;;;4739919;30;20040;-76
2021/08/08 02:39:50;;;;;;;25.13;10.45;;;15.70;99.90;;;;;;4730382;30;20051;-75
2021/08/08 02:42:16;;;;;;;29.88;12.10;;;15.70;99.90;;;;;;4751818;30;20048;-75
2021/08/08 02:44:43;;;;;;;22.63;9.85;;;15.60;99.90;;;;;;4736079;30;20056;-74
2021/08/08 02:47:11;;;;;;;21.05;9.85;;;15.60;99.90;;;;;;4742980;30;20054;-76
2021/08/08 02:49:39;;;;;;;28.33;10.70;;;15.60;99.90;;;;;;4754579;30;20044;-75
2021/08/08 02:52:06;;;;;;;29.00;11.18;;;15.70;99.90;;;;;;4724756;30;20409;-77
2021/08/08 02:54:34;;;;;;;21.58;10.80;;;15.70;99.90;;;;;;4711558;30;20067;-77
2021/08/08 02:57:00;;;;;;;19.23;9.73;;;15.70;99.90;;;;;;4724745;30;20039;-77
2021/08/08 02:59:27;;;;;;;23.70;10.32;;;15.70;99.90;;;;;;4736969;30;20705;-77
2021/08/08 03:01:55;;;;;;;28.00;11.45;;;15.70;99.90;;;;;;4744551;30;20082;-76
2021/08/08 03:04:22;;;;;;;29.95;11.95;;;15.60;99.90;;;;;;4745300;30;20038;-76
2021/08/08 03:06:50;;;;;;;27.25;12.63;;;15.60;99.90;;;;;;4714829;30;20515;-76
2021/08/08 03:09:20;;;;;;;19.70;10.63;;;15.60;99.90;;;;;;4759863;30;20047;-76
2021/08/08 03:11:46;;;;;;;25.33;10.77;;;15.60;99.90;;;;;;4745640;30;20112;-76
2021/08/08 03:14:17;;;;;;;22.67;10.63;;;15.50;99.90;;;;;;4745205;30;20044;-76
2021/08/08 03:16:46;;;;;;;22.95;9.95;;;15.60;99.90;;;;;;4758795;30;20424;-74
2021/08/08 03:19:15;;;;;;;29.48;12.93;;;15.60;99.90;;;;;;4745386;30;20089;-75
2021/08/08 03:21:42;;;;;;;22.70;10.18;;;15.50;99.90;;;;;;4742526;30;20083;-75
2021/08/08 03:24:09;;;;;;;18.88;9.48;;;15.50;99.90;;;;;;4760952;30;20058;-75
2021/08/08 03:26:36;;;;;;;25.45;10.27;;;15.50;99.90;;;;;;4759619;30;20047;-75
2021/08/08 03:29:03;;;;;;;18.85;9.23;;;15.60;99.90;;;;;;4759896;30;20043;-75
2021/08/08 03:31:30;;;;;;;19.70;9.18;;;15.50;99.90;;;;;;4743000;30;20054;-75
2021/08/08 03:33:57;;;;;;;16.63;7.45;;;15.50;99.90;;;;;;4728939;30;20082;-78
2021/08/08 03:36:25;;;;;;;28.33;9.43;;;15.50;99.90;;;;;;4760994;30;20044;-76
2021/08/08 03:38:53;;;;;;;25.67;7.97;;;15.60;99.90;;;;;;4724283;30;20416;-76
2021/08/08 03:41:20;;;;;;;19.27;7.60;;;15.60;99.90;;;;;;4753268;30;20051;-75
2021/08/08 03:43:47;;;;;;;21.90;8.63;;;15.60;99.90;;;;;;4760036;30;20051;-76
2021/08/08 03:46:15;;;;;;;26.67;8.48;;;15.50;99.90;;;;;;4743672;30;20044;-75
2021/08/08 03:48:41;;;;;;;20.20;7.15;;;15.50;99.90;;;;;;4744001;30;20055;-76
2021/08/08 03:51:10;;;;;;;20.38;7.13;;;15.50;99.90;;;;;;4744016;30;20044;-76
2021/08/08 03:53:37;;;;;;;23.63;8.43;;;15.50;99.90;;;;;;4747816;30;20053;-75
2021/08/08 03:56:03;;;;;;;20.13;7.15;;;15.50;99.90;;;;;;4741519;30;20047;-75
2021/08/08 03:58:30;;;;;;;15.73;6.38;;;15.50;99.90;;;;;;4762723;30;20048;-75
2021/08/08 04:01:03;;;;;;;23.42;8.95;;;15.60;99.90;;;;;;4743798;30;20362;-75
2021/08/08 04:03:33;;;;;;;23.45;8.25;;;15.60;99.90;;;;;;4745138;30;20051;-76
2021/08/08 04:06:00;;;;;;;21.65;7.50;;;15.50;99.90;;;;;;4744737;30;20048;-76
2021/08/08 04:08:27;;;;;;;18.13;7.40;;;15.50;99.90;;;;;;4759040;30;20039;-75
2021/08/08 04:10:55;;;;;;;18.70;7.00;;;15.50;99.90;;;;;;4728311;30;20735;-75
2021/08/08 04:13:23;;;;;;;21.98;7.30;;;15.50;99.90;;;;;;4758282;30;20052;-75
2021/08/08 04:15:51;;;;;;;19.05;7.78;;;15.50;99.90;;;;;;4726582;30;20053;-75
2021/08/08 04:18:17;;;;;;;21.02;7.47;;;15.50;99.90;;;;;;4757033;30;20511;-76
2021/08/08 04:20:44;;;;;;;18.38;7.47;;;15.50;99.90;;;;;;4757569;30;20404;-76
2021/08/08 04:23:10;;;;;;;23.10;8.10;;;15.50;99.90;;;;;;4759733;30;20043;-76
2021/08/08 04:25:39;;;;;;;24.80;7.80;;;15.50;99.90;;;;;;4744633;30;20052;-76
2021/08/08 04:28:07;;;;;;;22.35;8.35;;;15.50;99.90;;;;;;4743760;30;20539;-76
2021/08/08 04:30:35;;;;;;;24.33;7.22;;;15.40;99.90;;;;;;4740222;30;20063;-78
2021/08/08 04:33:03;;;;;;;14.95;6.97;;;15.40;99.90;;;;;;4738686;30;20409;-78
2021/08/08 04:35:32;;;;;;;22.00;6.95;;;15.40;99.90;;;;;;4736265;30;20058;-77
2021/08/08 04:38:00;;;;;;;23.90;7.13;;;15.40;99.90;;;;;;4752991;30;20055;-77
2021/08/08 04:40:28;;;;;;;28.52;7.80;;;15.40;99.90;;;;;;4738859;30;20072;-78
2021/08/08 04:42:55;;;;;;;22.02;6.93;;;15.40;99.90;;;;;;4755682;30;20050;-76
2021/08/08 04:45:23;;;;;;;19.50;7.38;;;15.40;99.90;;;;;;4738573;30;20443;-75
2021/08/08 04:47:50;;;;;;;20.02;6.72;;;15.40;99.90;;;;;;4736052;30;20299;-75
2021/08/08 04:50:19;;;;;;;18.05;6.57;;;15.40;99.90;;;;;;4757872;30;20491;-76
2021/08/08 04:52:46;;;;;;;18.55;7.63;;;15.50;99.90;;;;;;4739567;30;20756;-75
2021/08/08 04:55:14;;;;;;;18.20;6.60;;;15.50;99.90;;;;;;4728305;30;20076;-75
2021/08/08 04:57:41;;;;;;;20.15;6.53;;;15.50;99.90;;;;;;4742993;30;20043;-75
2021/08/08 05:00:09;;;;;;;23.60;6.75;;;15.50;99.90;;;;;;4745572;30;20056;-75
2021/08/08 05:02:36;;;;;;;18.85;7.82;;;15.50;99.90;;;;;;4756221;30;20049;-75
2021/08/08 05:05:04;;;;;;;14.88;6.30;;;15.50;99.90;;;;;;4743020;30;20054;-75
2021/08/08 05:07:39;;;;;;;19.40;6.32;;;15.50;99.90;;;;;;4757945;30;20043;-75
2021/08/08 05:10:12;;;;;;;12.13;6.43;;;15.50;99.90;;;;;;4745050;30;20040;-75
2021/08/08 05:12:39;;;;;;;;;;;15.50;99.90;;;;;;4727438;30;20058;-75
2021/08/08 05:15:06;;;;;;;18.48;6.80;;;15.50;99.90;;;;;;4744490;30;19918;-75
2021/08/08 05:17:33;;;;;;;25.05;7.97;;;15.60;99.90;;;;;;4758377;30;20066;-75
2021/08/08 05:20:03;;;;;;;12.65;6.13;;;15.60;99.90;;;;;;4760150;30;20043;-75
2021/08/08 05:22:30;;;;;;;19.67;6.68;;;15.60;99.90;;;;;;4754685;30;20970;-75
2021/08/08 05:24:56;;;;;;;18.50;6.40;;;15.60;99.90;;;;;;4756241;30;20043;-75
2021/08/08 05:27:22;;;;;;;21.70;6.68;;;15.70;99.90;;;;;;4756908;30;20060;-75
2021/08/08 05:29:49;;;;;;;21.98;6.68;;;15.70;99.90;;;;;;4728414;30;20083;-75
2021/08/08 05:32:16;;;;;;;22.67;5.32;;;15.70;99.90;;;;;;4753888;30;20055;-75
2021/08/08 05:34:42;;;;;;;18.25;6.15;;;15.70;99.90;;;;;;4725991;30;20068;-74
2021/08/08 05:37:09;;;;;;;16.40;5.72;;;15.70;99.90;;;;;;4741775;30;20059;-75
2021/08/08 05:39:36;;;;;;;16.58;6.05;;;15.70;99.90;;;;;;4743816;30;20083;-75
2021/08/08 05:42:02;;;;;;;18.58;5.07;;;15.70;99.90;;;;;;4751385;30;20827;-76
2021/08/08 05:44:29;;;;;;;22.95;5.85;;;15.70;99.90;;;;;;4758090;30;20043;-75
2021/08/08 05:46:55;;;;;;;16.27;4.70;;;15.70;99.90;;;;;;4742840;30;20140;-75
2021/08/08 05:49:22;;;;;;;15.80;5.07;;;15.70;99.90;;;;;;4755979;30;20051;-76
2021/08/08 05:51:48;;;;;;;20.58;5.25;;;15.70;99.90;;;;;;4754711;30;20071;-75
2021/08/08 05:54:15;;;;;;;16.88;4.55;;;15.70;99.90;;;;;;4740948;30;20049;-75
2021/08/08 05:56:42;;;;;;;19.85;5.95;;;15.70;99.90;;;;;;4756583;30;20051;-75
2021/08/08 05:59:09;;;;;;;12.07;4.05;;;15.70;99.90;;;;;;4758369;30;20072;-75
2021/08/08 06:01:36;;;;;;;15.38;4.55;;;15.80;99.90;;;;;;4742394;30;20063;-75
2021/08/08 06:04:03;;;;;;;15.68;5.07;;;15.80;99.90;;;;;;4739199;30;20067;-75
2021/08/08 06:06:32;;;;;;;14.88;4.60;;;15.90;99.90;;;;;;4743486;30;20067;-78
2021/08/08 06:08:59;;;;;;;23.20;5.32;;;15.90;99.90;;;;;;4759176;30;20032;-78
2021/08/08 06:11:25;;;;;;;17.65;4.97;;;15.90;99.90;;;;;;4742859;30;20036;-78
2021/08/08 06:13:51;;;;;;;14.32;4.22;;;15.90;99.90;;;;;;4743191;30;20131;-77
2021/08/08 06:16:19;;;;;;;18.23;5.43;;;15.90;99.90;;;;;;4728629;30;20073;-78
2021/08/08 06:18:46;;;;;;;16.40;3.85;;;15.90;99.90;;;;;;4755573;30;20047;-78
2021/08/08 06:21:13;;;;;;;14.00;4.00;;;15.90;99.90;;;;;;4740849;30;21126;-78
2021/08/08 06:23:47;;;;;;;13.10;4.22;;;16.00;99.90;;;;;;4741751;30;20060;-78
2021/08/08 06:26:13;;;;;;;16.90;4.32;;;16.10;99.90;;;;;;4729250;30;20051;-78
2021/08/08 06:28:40;;;;;;;12.80;3.58;;;16.30;99.90;;;;;;4759436;30;20047;-78
2021/08/08 06:31:07;;;;;;;11.82;4.20;;;16.40;99.90;;;;;;4742837;30;20047;-80
2021/08/08 06:33:34;;;;;;;15.75;4.40;;;16.50;99.90;;;;;;4757759;30;20641;-79
2021/08/08 06:36:01;;;;;;;22.63;5.35;;;16.50;99.90;;;;;;4758408;30;20036;-78
2021/08/08 06:38:28;;;;;;;14.57;3.75;;;16.50;99.90;;;;;;4744267;30;20067;-79
2021/08/08 06:40:54;;;;;;;14.60;4.10;;;16.50;99.90;;;;;;4742259;30;20428;-78
2021/08/08 06:43:22;;;;;;;16.80;3.85;;;16.50;99.90;;;;;;4742254;30;20044;-79
2021/08/08 06:45:51;;;;;;;15.85;3.65;;;16.50;99.90;;;;;;4745388;30;20584;-79
2021/08/08 06:48:18;;;;;;;17.98;4.30;;;16.50;99.90;;;;;;4753172;30;20050;-79
2021/08/08 06:50:46;;;;;;;21.90;4.72;;;16.50;99.90;;;;;;4757223;30;20040;-78
2021/08/08 06:53:13;;;;;;;20.45;4.47;;;16.50;99.90;;;;;;4742047;30;20055;-78
2021/08/08 06:55:40;;;;;;;21.20;5.07;;;16.40;99.90;;;;;;4744630;30;20043;-79
2021/08/08 06:58:07;;;;;;;17.58;3.90;;;16.40;99.90;;;;;;4743475;30;20058;-79
2021/08/08 07:00:34;;;;;;;12.43;3.28;;;16.40;99.90;;;;;;4758524;30;20413;-78
2021/08/08 07:03:01;;;;;;;13.45;3.60;;;16.40;99.90;;;;;;4713594;30;20055;-79
2021/08/08 07:05:27;;;;;;;17.42;3.95;;;16.50;99.90;;;;;;4730641;30;20043;-78
2021/08/08 07:07:55;;;;;;;17.35;3.95;;;16.50;99.90;;;;;;4743542;30;20071;-79
2021/08/08 07:10:21;;;;;;;11.15;3.40;;;16.50;99.90;;;;;;4731452;30;20051;-78
2021/08/08 07:12:48;;;;;;;22.25;4.50;;;16.60;99.90;;;;;;4759396;30;20060;-79
2021/08/08 07:15:14;;;;;;;17.55;3.78;;;16.70;99.90;;;;;;4732665;30;20048;-77
2021/08/08 07:17:44;;;;;;;19.00;4.35;;;16.80;99.90;;;;;;4759648;30;20488;-77
2021/08/08 07:20:11;;;;;;;21.60;4.60;;;16.90;99.90;;;;;;4741205;30;20050;-77
2021/08/08 07:22:38;;;;;;;16.10;4.20;;;16.90;99.90;;;;;;4754437;30;20067;-76
2021/08/08 07:25:05;;;;;;;16.63;3.92;;;16.90;99.90;;;;;;4756192;30;20884;-75
2021/08/08 07:27:31;;;;;;;14.48;3.92;;;16.90;99.90;;;;;;4757903;30;20051;-75
2021/08/08 07:29:58;;;;;;;15.65;3.05;;;16.90;99.90;;;;;;4758344;30;20050;-75
2021/08/08 07:32:25;;;;;;;15.75;3.20;;;17.20;99.90;;;;;;4711367;30;20063;-76
2021/08/08 07:34:52;;;;;;;16.08;3.55;;;17.40;99.90;;;;;;4743553;30;20056;-75
2021/08/08 07:37:21;;;;;;;15.10;3.65;;;17.50;99.90;;;;;;4754011;30;20052;-75
2021/08/08 07:39:49;;;;;;;10.88;2.60;;;17.50;99.90;;;;;;4741925;30;20055;-75
2021/08/08 07:42:15;;;;;;;11.45;2.63;;;17.40;99.90;;;;;;4753487;30;20400;-74
2021/08/08 07:44:42;;;;;;;14.85;3.63;;;17.50;99.90;;;;;;4755614;30;20090;-75
2021/08/08 07:47:08;;;;;;;13.45;2.95;;;17.50;99.90;;;;;;4760946;30;20050;-75
2021/08/08 07:49:35;;;;;;;19.98;3.13;;;17.60;99.90;;;;;;4758732;30;20044;-76
2021/08/08 07:52:02;;;;;;;18.02;3.03;;;17.80;99.90;;;;;;4757860;30;20051;-76
2021/08/08 07:54:30;;;;;;;12.65;3.22;;;17.90;99.90;;;;;;4759782;30;20050;-76
2021/08/08 07:56:56;;;;;;;19.75;3.65;;;18.00;99.90;;;;;;4730260;30;20377;-76
2021/08/08 07:59:23;;;;;;;9.13;2.38;;;18.10;99.90;;;;;;4740344;30;20412;-76
2021/08/08 08:01:50;;;;;;;22.13;3.63;;;18.20;99.90;;;;;;4755388;30;20067;-77
2021/08/08 08:04:19;;;;;;;11.50;2.15;;;18.20;99.90;;;;;;4737773;30;20046;-77
2021/08/08 08:06:47;;;;;;;14.95;2.92;;;18.10;99.90;;;;;;4753958;30;20047;-77
2021/08/08 08:09:14;;;;;;;12.85;2.30;;;18.10;99.90;;;;;;4752283;30;20036;-78
2021/08/08 08:11:41;;;;;;;10.40;2.88;;;18.20;99.90;;;;;;4708195;30;20052;-78
2021/08/08 08:14:09;;;;;;;13.43;2.47;;;18.20;99.90;;;;;;4742207;30;20895;-78
2021/08/08 08:16:35;;;;;;;12.90;2.40;;;18.20;99.90;;;;;;4760417;30;20039;-77
2021/08/08 08:19:02;;;;;;;12.68;2.08;;;18.20;99.90;;;;;;4756481;30;20044;-81
2021/08/08 08:21:29;;;;;;;10.88;2.33;;;18.10;99.90;;;;;;4726324;30;20067;-78
2021/08/08 08:23:55;;;;;;;11.50;1.65;;;18.20;99.90;;;;;;4742717;30;20049;-77
2021/08/08 08:26:21;;;;;;;16.73;2.83;;;18.40;99.90;;;;;;4760253;30;20062;-78
2021/08/08 08:28:49;;;;;;;13.32;2.10;;;18.70;99.90;;;;;;4758630;30;20050;-76
2021/08/08 08:31:16;;;;;;;13.93;2.08;;;18.90;99.90;;;;;;4729017;30;20054;-77
2021/08/08 08:33:42;;;;;;;15.73;2.65;;;19.00;99.90;;;;;;4742699;30;20056;-77
2021/08/08 08:36:09;;;;;;;13.25;2.17;;;19.10;99.90;;;;;;4758431;30;20058;-77
2021/08/08 08:38:36;;;;;;;11.40;2.15;;;19.20;99.90;;;;;;4758732;30;20048;-77
2021/08/08 08:41:04;;;;;;;9.32;2.10;;;19.40;99.90;;;;;;4743064;30;20041;-77
2021/08/08 08:43:31;;;;;;;10.35;1.60;;;19.60;99.90;;;;;;4758379;30;20042;-76
2021/08/08 08:46:01;;;;;;;8.95;1.83;;;19.70;99.90;;;;;;4760427;30;20035;-77
2021/08/08 08:48:31;;;;;;;7.22;1.70;;;19.80;99.90;;;;;;4758071;30;20047;-79
2021/08/08 08:51:00;;;;;;;15.10;2.10;;;19.70;99.90;;;;;;4758744;30;20496;-78
2021/08/08 08:53:30;;;;;;;14.02;2.08;;;19.60;99.90;;;;;;4762200;30;20076;-77
2021/08/08 08:56:00;;;;;;;13.68;2.38;;;19.70;99.90;;;;;;4745213;30;20039;-78
2021/08/08 08:58:28;;;;;;;7.82;1.33;;;19.70;99.90;;;;;;4776823;29;20054;-76
2021/08/08 09:00:55;;;;;;;12.18;2.25;;;19.80;99.90;;;;;;4745145;30;20396;-76
2021/08/08 09:03:21;;;;;;;10.77;1.85;;;19.80;99.90;;;;;;4741534;30;20051;-76
2021/08/08 09:05:48;;;;;;;8.77;1.67;;;19.80;99.90;;;;;;4757932;30;20047;-76
2021/08/08 09:08:15;;;;;;;7.15;1.55;;;19.70;99.90;;;;;;4760744;30;20399;-76
2021/08/08 09:10:42;;;;;;;9.63;1.55;;;19.60;99.90;;;;;;4745259;30;20066;-76
2021/08/08 09:13:10;;;;;;;9.80;2.47;;;19.60;99.90;;;;;;4757449;30;20070;-76
2021/08/08 09:15:42;;;;;;;6.75;1.45;;;19.60;99.90;;;;;;4760709;30;20047;-77
2021/08/08 09:18:12;;;;;;;13.00;1.77;;;19.70;99.90;;;;;;4741952;30;20492;-76
2021/08/08 09:20:42;;;;;;;11.15;1.70;;;19.90;99.90;;;;;;4754693;30;20094;-77
2021/08/08 09:23:09;;;;;;;10.20;1.42;;;20.10;99.90;;;;;;4755920;30;20044;-78
2021/08/08 09:25:38;;;;;;;10.75;1.70;;;20.30;99.90;;;;;;4743512;30;20048;-78
2021/08/08 09:28:08;;;;;;;;;;;20.40;99.80;;;;;;4756620;30;20052;-78
2021/08/08 09:30:38;;;;;;;7.70;1.10;;;20.60;99.40;;;;;;4758556;30;19929;-79
2021/08/08 09:33:07;;;;;;;7.55;1.40;;;20.80;98.80;;;;;;4745065;30;20081;-78
2021/08/08 09:35:42;;;;;;;9.40;1.73;;;20.80;98.10;;;;;;4757054;30;20056;-78
2021/08/08 09:38:12;;;;;;;12.18;1.35;;;20.90;98.00;;;;;;4746641;30;20055;-78
2021/08/08 09:40:41;;;;;;;9.05;1.55;;;20.90;97.40;;;;;;4761017;30;20054;-79
2021/08/08 09:43:09;;;;;;;5.93;1.85;;;20.90;97.50;;;;;;4758806;30;20058;-78
2021/08/08 09:45:36;;;;;;;6.32;1.55;;;20.70;97.20;;;;;;4745960;30;20412;-77
2021/08/08 09:48:04;;;;;;;9.82;1.75;;;20.50;96.80;;;;;;4741895;30;20067;-77
2021/08/08 09:50:32;;;;;;;8.00;1.73;;;20.50;97.30;;;;;;4742954;30;20051;-76
2021/08/08 09:53:01;;;;;;;11.48;1.80;;;20.50;96.90;;;;;;4739790;30;20059;-76
2021/08/08 09:55:30;;;;;;;13.68;2.20;;;20.50;97.10;;;;;;4735593;30;20050;-76
2021/08/08 09:57:58;;;;;;;9.85;1.38;;;20.30;97.20;;;;;;4730743;30;20055;-76
2021/08/08 10:00:28;;;;;;;7.78;1.58;;;20.20;97.00;;;;;;4745457;30;20036;-77
2021/08/08 10:02:55;;;;;;;8.55;1.73;;;20.20;97.10;;;;;;4751688;30;20055;-75
2021/08/08 10:05:23;;;;;;;10.05;2.00;;;20.30;96.70;;;;;;4757263;30;20039;-75
2021/08/08 10:07:50;;;;;;;12.32;4.07;;;20.40;96.40;;;;;;4742859;30;20048;-76
2021/08/08 10:10:18;;;;;;;5.93;1.90;;;20.60;96.70;;;;;;4727414;30;20059;-76
2021/08/08 10:12:48;;;;;;;13.02;2.20;;;20.60;96.60;;;;;;4755925;30;20070;-80
2021/08/08 10:15:14;;;;;;;9.82;1.80;;;20.80;96.40;;;;;;4743838;30;20047;-84
2021/08/08 10:17:44;;;;;;;9.25;1.58;;;20.90;96.10;;;;;;4737943;30;20055;-80
2021/08/08 10:20:11;;;;;;;5.53;1.20;;;21.00;96.00;;;;;;4752951;30;20492;-76
2021/08/08 10:22:41;;;;;;;10.65;1.40;;;21.40;95.50;;;;;;4733331;30;20044;-76
2021/08/08 10:25:09;;;;;;;7.15;1.02;;;21.70;94.60;;;;;;4752579;30;20051;-78
2021/08/08 10:27:36;;;;;;;6.55;1.23;;;21.90;94.40;;;;;;4750762;30;20396;-77
2021/08/08 10:30:05;;;;;;;7.80;1.23;;;21.90;94.00;;;;;;4746931;30;20047;-77
2021/08/08 10:32:32;;;;;;;9.07;1.90;;;21.90;94.20;;;;;;4750657;30;20040;-77
2021/08/08 10:35:12;;;;;;;7.63;1.38;;;21.90;93.70;;;;;;4750270;30;20044;-77
2021/08/08 10:37:44;;;;;;;8.23;1.35;;;22.00;94.20;;;;;;4750833;30;20043;-77
2021/08/08 10:40:27;;;;;;;6.45;1.17;;;22.10;94.10;;;;;;4752496;30;20036;-77
2021/08/08 10:42:57;;;;;;;12.63;2.03;;;22.10;93.10;;;;;;4751883;30;20043;-77
2021/08/08 10:45:31;;;;;;;8.98;1.60;;;22.00;92.70;;;;;;4756127;30;20048;-78
2021/08/08 10:48:14;;;;;;;7.55;1.25;;;22.00;92.40;;;;;;4757137;30;20392;-76
2021/08/08 10:50:51;;;;;;;5.35;1.23;;;22.00;92.10;;;;;;4751740;30;20052;-76
2021/08/08 10:53:21;;;;;;;7.97;1.35;;;22.10;91.50;;;;;;4754327;30;20035;-77
2021/08/08 10:56:02;;;;;;;8.70;1.50;;;22.00;91.40;;;;;;4754926;30;20047;-77
2021/08/08 10:58:37;;;;;;;5.53;1.45;;;21.80;91.30;;;;;;4755333;30;20060;-77
2021/08/08 11:01:22;;;;;;;9.35;1.73;;;21.80;91.40;;;;;;4755600;30;20051;-77
2021/08/08 11:03:55;;;;;;;8.65;1.65;;;21.80;92.20;;;;;;4719353;30;20081;-77
2021/08/08 11:06:29;;;;;;;7.05;1.65;;;21.80;91.70;;;;;;4750455;30;20579;-77
2021/08/08 11:08:58;;;;;;;7.22;1.42;;;21.80;91.80;;;;;;4741216;30;20500;-78
2021/08/08 11:11:33;;;;;;;8.68;1.48;;;21.80;92.10;;;;;;4755257;30;20028;-78
2021/08/08 11:14:15;;;;;;;6.20;1.40;;;21.80;91.90;;;;;;4757908;30;20489;-78
2021/08/08 11:16:47;;;;;;;6.82;1.65;;;21.80;91.90;;;;;;4757795;30;20043;-78
2021/08/08 11:19:14;;;;;;;7.47;1.30;;;21.90;91.20;;;;;;4753664;30;20048;-78
2021/08/08 11:21:40;;;;;;;7.35;1.45;;;21.80;91.30;;;;;;4755414;30;20293;-78
2021/08/08 11:24:11;;;;;;;7.65;1.48;;;21.80;90.90;;;;;;4744999;30;20055;-78
2021/08/08 11:26:38;;;;;;;6.15;1.10;;;21.80;90.50;;;;;;4744873;30;20052;-78
2021/08/08 11:29:06;;;;;;;4.15;0.90;;;21.90;91.10;;;;;;4760114;30;20039;-78
2021/08/08 11:31:36;;;;;;;8.43;1.10;;;22.30;90.90;;;;;;4728548;30;20055;-78
2021/08/08 11:34:07;;;;;;;6.78;1.30;;;22.70;90.30;;;;;;4760058;30;20067;-78
2021/08/08 11:36:41;;;;;;;8.60;1.13;;;22.80;89.10;;;;;;4753962;30;20039;-78
2021/08/08 11:39:11;;;;;;;6.00;0.98;;;22.90;89.00;;;;;;4737892;30;20495;-78
2021/08/08 11:41:41;;;;;;;9.50;1.10;;;23.00;89.30;;;;;;4756845;30;20380;-78
2021/08/08 11:44:14;;;;;;;6.20;1.00;;;23.20;89.30;;;;;;4760936;30;20507;-78
2021/08/08 11:46:55;;;;;;;8.00;1.20;;;23.40;88.70;;;;;;4757019;30;20508;-78
2021/08/08 11:49:25;;;;;;;7.75;1.20;;;23.40;87.90;;;;;;4745205;30;20055;-78
2021/08/08 11:52:03;;;;;;;7.35;1.10;;;23.50;87.90;;;;;;4759125;30;20048;-78
2021/08/08 11:54:31;;;;;;;6.35;1.13;;;23.60;87.40;;;;;;4744918;30;20051;-79
2021/08/08 11:56:59;;;;;;;5.30;0.90;;;24.00;86.70;;;;;;4762599;30;20059;-79
2021/08/08 11:59:34;;;;;;;6.63;1.00;;;24.50;84.40;;;;;;4758296;30;20078;-78
2021/08/08 12:02:07;;;;;;;5.97;0.98;;;24.90;82.20;;;;;;4742704;30;20059;-78
2021/08/08 12:04:36;;;;;;;6.25;1.10;;;25.10;80.80;;;;;;4757340;30;20044;-79
2021/08/08 12:07:05;;;;;;;8.90;1.00;;;25.30;79.30;;;;;;4729321;30;20457;-79
2021/08/08 12:09:33;;;;;;;6.07;1.00;;;25.50;79.40;;;;;;4742328;30;20046;-79
2021/08/08 12:12:00;;;;;;;6.05;0.93;;;25.70;77.30;;;;;;4761939;30;20044;-77
2021/08/08 12:14:30;;;;;;;7.85;0.90;;;25.80;77.00;;;;;;4759521;30;20043;-77
2021/08/08 12:17:07;;;;;;;6.50;1.05;;;26.00;76.80;;;;;;4757236;30;20816;-77
2021/08/08 12:19:36;;;;;;;9.82;1.25;;;26.20;76.10;;;;;;4755092;30;20519;-77
2021/08/08 12:22:08;;;;;;;4.93;0.88;;;26.00;75.20;;;;;;4735434;30;20505;-77
2021/08/08 12:24:40;;;;;;;6.45;0.80;;;25.60;74.60;;;;;;4753142;30;20032;-77
2021/08/08 12:27:08;;;;;;;;;;;25.20;75.10;;;;;;4759678;30;20056;-80
2021/08/08 12:29:39;;;;;;;3.78;0.88;;;24.90;75.40;;;;;;4761653;30;19916;-78
2021/08/08 12:32:15;;;;;;;3.47;0.70;;;24.80;75.70;;;;;;4757059;30;20074;-78
2021/08/08 12:34:46;;;;;;;5.78;0.95;;;24.70;75.60;;;;;;4760763;30;20904;-77
2021/08/08 12:37:14;;;;;;;3.78;0.70;;;24.50;76.20;;;;;;4728320;30;20052;-78
2021/08/08 12:39:42;;;;;;;5.00;1.17;;;24.20;76.50;;;;;;4763614;30;20044;-78
2021/08/08 12:42:20;;;;;;;4.90;0.82;;;23.90;77.70;;;;;;4756507;30;20523;-81
2021/08/08 12:44:47;;;;;;;7.78;0.95;;;23.50;78.90;;;;;;4755765;30;20047;-78
2021/08/08 12:47:23;;;;;;;7.35;2.03;;;23.10;80.30;;;;;;4758295;30;20040;-77
2021/08/08 12:49:50;;;;;;;7.00;3.55;;;22.80;82.20;;;;;;4752147;30;20813;-78
2021/08/08 12:52:17;;;;;;;4.97;2.05;;;22.70;83.30;;;;;;4756447;30;20047;-78
2021/08/08 12:54:43;;;;;;;3.03;0.80;;;23.00;83.70;;;;;;4757712;30;20060;-78
2021/08/08 12:57:10;;;;;;;2.47;0.65;;;23.60;83.20;;;;;;4745890;30;20063;-78
2021/08/08 12:59:37;;;;;;;3.17;0.50;;;24.20;81.20;;;;;;4757353;30;20047;-79